VLG3AJ LEAL-LEPA
Flight info
| Callsign | VLG3AJ |
|---|---|
| Flight time | 0h 38m |
| Altitude | 24000 |
| Route | MITOS N851 RUXET |
| Aircraft | A320/M-SDE3FGHIRWY/LB1 |
Departure
| Time | 2026-05-05 18:51 |
|---|---|
| Airport | Alicante-Elche Miguel Hernández Airport (LEAL) |
Arrival
| Time | 2026-05-05 19:29 |
|---|---|
| Airport | Palma de Mallorca Airport (LEPA) |
| Time | Latitude | Longitude | Altitude | Speed | Heading |
|---|---|---|---|---|---|
| 2026-05-05 18:28 | 38.28530 | -0.55278 | 93 ft | 0 kts | 9° |
| 2026-05-05 18:37 | 38.28523 | -0.55279 | 93 ft | 4 kts | 7° |
| 2026-05-05 18:37 | 38.28495 | -0.55280 | 93 ft | 4 kts | 352° |
| 2026-05-05 18:38 | 38.28470 | -0.55271 | 94 ft | 4 kts | 329° |
| 2026-05-05 18:38 | 38.28451 | -0.55250 | 94 ft | 4 kts | 297° |
| 2026-05-05 18:38 | 38.28445 | -0.55234 | 92 ft | 0 kts | 280° |
| 2026-05-05 18:41 | 38.28447 | -0.55241 | 93 ft | 4 kts | 281° |
| 2026-05-05 18:42 | 38.28453 | -0.55281 | 95 ft | 5 kts | 281° |
| 2026-05-05 18:42 | 38.28459 | -0.55322 | 96 ft | 5 kts | 277° |
| 2026-05-05 18:42 | 38.28462 | -0.55364 | 96 ft | 5 kts | 277° |
| 2026-05-05 18:42 | 38.28469 | -0.55409 | 96 ft | 5 kts | 281° |
| 2026-05-05 18:43 | 38.28475 | -0.55449 | 98 ft | 4 kts | 280° |
| 2026-05-05 18:43 | 38.28481 | -0.55487 | 97 ft | 5 kts | 281° |
| 2026-05-05 18:43 | 38.28487 | -0.55532 | 101 ft | 6 kts | 279° |
| 2026-05-05 18:43 | 38.28487 | -0.55570 | 100 ft | 4 kts | 258° |
| 2026-05-05 18:44 | 38.28440 | -0.55602 | 98 ft | 12 kts | 192° |
| 2026-05-05 18:44 | 38.28377 | -0.55640 | 96 ft | 11 kts | 249° |
| 2026-05-05 18:44 | 38.28384 | -0.55746 | 99 ft | 13 kts | 278° |
| 2026-05-05 18:44 | 38.28401 | -0.55867 | 97 ft | 15 kts | 281° |
| 2026-05-05 18:45 | 38.28422 | -0.56008 | 97 ft | 17 kts | 276° |
| 2026-05-05 18:45 | 38.28437 | -0.56151 | 98 ft | 15 kts | 287° |
| 2026-05-05 18:45 | 38.28459 | -0.56278 | 102 ft | 14 kts | 280° |
| 2026-05-05 18:45 | 38.28474 | -0.56391 | 107 ft | 12 kts | 279° |
| 2026-05-05 18:46 | 38.28487 | -0.56487 | 110 ft | 10 kts | 280° |
| 2026-05-05 18:46 | 38.28504 | -0.56606 | 117 ft | 18 kts | 281° |
| 2026-05-05 18:46 | 38.28527 | -0.56764 | 122 ft | 17 kts | 280° |
| 2026-05-05 18:46 | 38.28546 | -0.56907 | 128 ft | 15 kts | 279° |
| 2026-05-05 18:47 | 38.28563 | -0.57032 | 135 ft | 13 kts | 279° |
| 2026-05-05 18:47 | 38.28579 | -0.57140 | 140 ft | 12 kts | 281° |
| 2026-05-05 18:47 | 38.28592 | -0.57239 | 144 ft | 14 kts | 279° |
| 2026-05-05 18:47 | 38.28609 | -0.57365 | 150 ft | 11 kts | 279° |
| 2026-05-05 18:48 | 38.28621 | -0.57451 | 153 ft | 8 kts | 276° |
| 2026-05-05 18:48 | 38.28621 | -0.57476 | 154 ft | 14 kts | 266° |
| 2026-05-05 18:48 | 38.28566 | -0.57507 | 153 ft | 8 kts | 184° |
| 2026-05-05 18:48 | 38.28555 | -0.57509 | 153 ft | 0 kts | 188° |
| 2026-05-05 18:49 | 38.28554 | -0.57509 | 153 ft | 1 kts | 188° |
| 2026-05-05 18:49 | 38.28510 | -0.57517 | 153 ft | 9 kts | 188° |
| 2026-05-05 18:49 | 38.28453 | -0.57483 | 153 ft | 10 kts | 116° |
| 2026-05-05 18:50 | 38.28436 | -0.57375 | 150 ft | 16 kts | 100° |
| 2026-05-05 18:50 | 38.28377 | -0.56969 | 138 ft | 83 kts | 100° |
| 2026-05-05 18:50 | 38.28243 | -0.56000 | 107 ft | 140 kts | 100° |
| 2026-05-05 18:50 | 38.28057 | -0.54667 | 423 ft | 152 kts | 102° |
| 2026-05-05 18:51 | 38.27873 | -0.53360 | 922 ft | 156 kts | 103° |
| 2026-05-05 18:51 | 38.27648 | -0.52014 | 1370 ft | 160 kts | 105° |
| 2026-05-05 18:51 | 38.27384 | -0.50519 | 1369 ft | 190 kts | 102° |
| 2026-05-05 18:51 | 38.27442 | -0.48796 | 1704 ft | 208 kts | 73° |
| 2026-05-05 18:52 | 38.28201 | -0.47092 | 1997 ft | 232 kts | 55° |
| 2026-05-05 18:52 | 38.29190 | -0.45329 | 2390 ft | 257 kts | 55° |
| 2026-05-05 18:52 | 38.30257 | -0.43418 | 3039 ft | 270 kts | 56° |
| 2026-05-05 18:52 | 38.31334 | -0.41448 | 3931 ft | 273 kts | 55° |
| 2026-05-05 18:53 | 38.32407 | -0.39432 | 4844 ft | 276 kts | 56° |
| 2026-05-05 18:53 | 38.33246 | -0.37211 | 5703 ft | 281 kts | 66° |
| 2026-05-05 18:53 | 38.33981 | -0.34876 | 6530 ft | 286 kts | 67° |
| 2026-05-05 18:53 | 38.34715 | -0.32498 | 7312 ft | 291 kts | 67° |
| 2026-05-05 18:54 | 38.35459 | -0.30077 | 8109 ft | 296 kts | 67° |
| 2026-05-05 18:54 | 38.36213 | -0.27620 | 8908 ft | 300 kts | 66° |
| 2026-05-05 18:54 | 38.37009 | -0.25141 | 9699 ft | 304 kts | 66° |
| 2026-05-05 18:54 | 38.37842 | -0.22637 | 10356 ft | 311 kts | 65° |
| 2026-05-05 18:55 | 38.38723 | -0.20037 | 10570 ft | 334 kts | 65° |
| 2026-05-05 18:55 | 38.39679 | -0.17227 | 10727 ft | 357 kts | 65° |
| 2026-05-05 18:55 | 38.40679 | -0.14266 | 11067 ft | 372 kts | 65° |
| 2026-05-05 18:55 | 38.41704 | -0.11201 | 11624 ft | 379 kts | 66° |
| 2026-05-05 18:56 | 38.42739 | -0.08079 | 12205 ft | 385 kts | 66° |
| 2026-05-05 18:56 | 38.43787 | -0.04905 | 12796 ft | 391 kts | 66° |
| 2026-05-05 18:56 | 38.44857 | -0.01672 | 13381 ft | 397 kts | 66° |
| 2026-05-05 18:56 | 38.45937 | 0.01609 | 13929 ft | 403 kts | 66° |
| 2026-05-05 18:57 | 38.47013 | 0.04931 | 14471 ft | 408 kts | 67° |
| 2026-05-05 18:57 | 38.48087 | 0.08289 | 15015 ft | 412 kts | 67° |
| 2026-05-05 18:57 | 38.49170 | 0.11698 | 15548 ft | 416 kts | 67° |
| 2026-05-05 18:57 | 38.50245 | 0.15085 | 16080 ft | 420 kts | 68° |
| 2026-05-05 18:58 | 38.51353 | 0.18564 | 16637 ft | 423 kts | 68° |
| 2026-05-05 18:58 | 38.52475 | 0.22066 | 17190 ft | 427 kts | 67° |
| 2026-05-05 18:58 | 38.53607 | 0.25597 | 17752 ft | 432 kts | 68° |
| 2026-05-05 18:58 | 38.54745 | 0.29164 | 18307 ft | 436 kts | 68° |
| 2026-05-05 18:59 | 38.55892 | 0.32764 | 18828 ft | 439 kts | 68° |
| 2026-05-05 18:59 | 38.57047 | 0.36394 | 19371 ft | 443 kts | 68° |
| 2026-05-05 18:59 | 38.58209 | 0.40056 | 19892 ft | 447 kts | 68° |
| 2026-05-05 18:59 | 38.59385 | 0.43757 | 20394 ft | 451 kts | 67° |
| 2026-05-05 19:00 | 38.60570 | 0.47479 | 20897 ft | 454 kts | 67° |
| 2026-05-05 19:00 | 38.61763 | 0.51239 | 21375 ft | 458 kts | 67° |
| 2026-05-05 19:00 | 38.62963 | 0.55029 | 21842 ft | 461 kts | 67° |
| 2026-05-05 19:00 | 38.64163 | 0.58840 | 22300 ft | 464 kts | 67° |
| 2026-05-05 19:01 | 38.65368 | 0.62676 | 22771 ft | 467 kts | 67° |
| 2026-05-05 19:01 | 38.66510 | 0.66580 | 23245 ft | 470 kts | 73° |
| 2026-05-05 19:01 | 38.67243 | 0.70657 | 23652 ft | 472 kts | 82° |
| 2026-05-05 19:01 | 38.67706 | 0.74838 | 23850 ft | 473 kts | 83° |
| 2026-05-05 19:02 | 38.68166 | 0.79036 | 23899 ft | 482 kts | 83° |
| 2026-05-05 19:02 | 38.68636 | 0.83321 | 23904 ft | 490 kts | 83° |
| 2026-05-05 19:02 | 38.69114 | 0.87632 | 23904 ft | 492 kts | 83° |
| 2026-05-05 19:02 | 38.69596 | 0.91978 | 23906 ft | 492 kts | 83° |
| 2026-05-05 19:03 | 38.70076 | 0.96325 | 23909 ft | 492 kts | 83° |
| 2026-05-05 19:03 | 38.70553 | 1.00675 | 23910 ft | 492 kts | 83° |
| 2026-05-05 19:03 | 38.71025 | 1.05019 | 23912 ft | 492 kts | 83° |
| 2026-05-05 19:03 | 38.71493 | 1.09364 | 23918 ft | 492 kts | 83° |
| 2026-05-05 19:04 | 38.71801 | 1.12219 | 23915 ft | 492 kts | 83° |
| 2026-05-05 19:04 | 38.72272 | 1.16580 | 23904 ft | 492 kts | 83° |
| 2026-05-05 19:04 | 38.72738 | 1.20916 | 23909 ft | 491 kts | 83° |
| 2026-05-05 19:04 | 38.73203 | 1.25262 | 23911 ft | 491 kts | 83° |
| 2026-05-05 19:05 | 38.73663 | 1.29596 | 23912 ft | 490 kts | 83° |
| 2026-05-05 19:05 | 38.74120 | 1.33923 | 23911 ft | 490 kts | 83° |
| 2026-05-05 19:05 | 38.74575 | 1.38251 | 23910 ft | 490 kts | 83° |
| 2026-05-05 19:05 | 38.75032 | 1.42572 | 23911 ft | 490 kts | 83° |
| 2026-05-05 19:06 | 38.75492 | 1.46902 | 23909 ft | 490 kts | 83° |
| 2026-05-05 19:06 | 38.75948 | 1.51233 | 23907 ft | 490 kts | 83° |
| 2026-05-05 19:06 | 38.76402 | 1.55565 | 23899 ft | 490 kts | 83° |
| 2026-05-05 19:06 | 38.76848 | 1.59841 | 23899 ft | 490 kts | 83° |
| 2026-05-05 19:07 | 38.77296 | 1.64172 | 23900 ft | 490 kts | 84° |
| 2026-05-05 19:07 | 38.77744 | 1.68497 | 23898 ft | 490 kts | 84° |
| 2026-05-05 19:07 | 38.78189 | 1.72821 | 23899 ft | 490 kts | 84° |
| 2026-05-05 19:07 | 38.78634 | 1.77144 | 23900 ft | 490 kts | 84° |
| 2026-05-05 19:08 | 38.79075 | 1.81469 | 23902 ft | 490 kts | 84° |
| 2026-05-05 19:08 | 38.79536 | 1.85797 | 23899 ft | 490 kts | 81° |
| 2026-05-05 19:08 | 38.80375 | 1.90033 | 23899 ft | 490 kts | 71° |
| 2026-05-05 19:08 | 38.81697 | 1.94052 | 23894 ft | 489 kts | 62° |
| 2026-05-05 19:09 | 38.83459 | 1.97772 | 23892 ft | 488 kts | 52° |
| 2026-05-05 19:09 | 38.85523 | 2.01209 | 23894 ft | 487 kts | 50° |
| 2026-05-05 19:09 | 38.87592 | 2.04612 | 23710 ft | 478 kts | 50° |
| 2026-05-05 19:09 | 38.89631 | 2.07976 | 22896 ft | 478 kts | 50° |
| 2026-05-05 19:10 | 38.91662 | 2.11336 | 22241 ft | 473 kts | 50° |
| 2026-05-05 19:10 | 38.93665 | 2.14659 | 21586 ft | 469 kts | 50° |
| 2026-05-05 19:10 | 38.95659 | 2.17968 | 20952 ft | 465 kts | 50° |
| 2026-05-05 19:10 | 38.97636 | 2.21253 | 20336 ft | 462 kts | 50° |
| 2026-05-05 19:11 | 38.99597 | 2.24511 | 19744 ft | 459 kts | 50° |
| 2026-05-05 19:11 | 39.01555 | 2.27764 | 19174 ft | 456 kts | 50° |
| 2026-05-05 19:11 | 39.03474 | 2.30958 | 18649 ft | 452 kts | 51° |
| 2026-05-05 19:11 | 39.05393 | 2.34157 | 18100 ft | 450 kts | 51° |
| 2026-05-05 19:12 | 39.07300 | 2.37342 | 17515 ft | 448 kts | 51° |
| 2026-05-05 19:12 | 39.09180 | 2.40485 | 17243 ft | 437 kts | 51° |
| 2026-05-05 19:12 | 39.11000 | 2.43533 | 17138 ft | 422 kts | 51° |
| 2026-05-05 19:12 | 39.11328 | 2.44083 | 17107 ft | 420 kts | 51° |
| 2026-05-05 19:13 | 39.12928 | 2.46762 | 16991 ft | 407 kts | 51° |
| 2026-05-05 19:13 | 39.14630 | 2.49606 | 16860 ft | 394 kts | 50° |
| 2026-05-05 19:13 | 39.16483 | 2.52097 | 16732 ft | 378 kts | 37° |
| 2026-05-05 19:13 | 39.18581 | 2.54050 | 16482 ft | 365 kts | 30° |
| 2026-05-05 19:14 | 39.20671 | 2.55864 | 15837 ft | 361 kts | 30° |
| 2026-05-05 19:14 | 39.22747 | 2.57664 | 15189 ft | 357 kts | 30° |
| 2026-05-05 19:14 | 39.24798 | 2.59448 | 14560 ft | 354 kts | 31° |
| 2026-05-05 19:14 | 39.26821 | 2.61213 | 13967 ft | 350 kts | 31° |
| 2026-05-05 19:15 | 39.28817 | 2.62959 | 13418 ft | 344 kts | 31° |
| 2026-05-05 19:15 | 39.30786 | 2.64682 | 12927 ft | 341 kts | 31° |
| 2026-05-05 19:15 | 39.32747 | 2.66396 | 12475 ft | 337 kts | 31° |
| 2026-05-05 19:15 | 39.34668 | 2.68077 | 11953 ft | 331 kts | 31° |
| 2026-05-05 19:16 | 39.36557 | 2.69764 | 11502 ft | 336 kts | 36° |
| 2026-05-05 19:16 | 39.38180 | 2.72124 | 11063 ft | 362 kts | 58° |
| 2026-05-05 19:16 | 39.39382 | 2.74904 | 10618 ft | 347 kts | 62° |
| 2026-05-05 19:16 | 39.40482 | 2.77621 | 10187 ft | 335 kts | 62° |
| 2026-05-05 19:17 | 39.41519 | 2.80219 | 9756 ft | 324 kts | 62° |
| 2026-05-05 19:17 | 39.42523 | 2.82757 | 9241 ft | 315 kts | 62° |
| 2026-05-05 19:17 | 39.43505 | 2.85260 | 8772 ft | 306 kts | 62° |
| 2026-05-05 19:17 | 39.44453 | 2.87699 | 8312 ft | 299 kts | 62° |
| 2026-05-05 19:18 | 39.45368 | 2.90078 | 7853 ft | 292 kts | 62° |
| 2026-05-05 19:18 | 39.46251 | 2.92389 | 7409 ft | 285 kts | 62° |
| 2026-05-05 19:18 | 39.47127 | 2.94704 | 6958 ft | 280 kts | 62° |
| 2026-05-05 19:18 | 39.47961 | 2.96925 | 6549 ft | 275 kts | 62° |
| 2026-05-05 19:19 | 39.48794 | 2.99158 | 6124 ft | 269 kts | 62° |
| 2026-05-05 19:19 | 39.49585 | 3.01299 | 5695 ft | 264 kts | 62° |
| 2026-05-05 19:19 | 39.50369 | 3.03419 | 5271 ft | 259 kts | 62° |
| 2026-05-05 19:19 | 39.51138 | 3.05505 | 4850 ft | 255 kts | 62° |
| 2026-05-05 19:20 | 39.51888 | 3.07546 | 4561 ft | 245 kts | 62° |
| 2026-05-05 19:20 | 39.52614 | 3.09518 | 4379 ft | 238 kts | 62° |
| 2026-05-05 19:20 | 39.53311 | 3.11436 | 4209 ft | 233 kts | 62° |
| 2026-05-05 19:20 | 39.54002 | 3.13326 | 4076 ft | 231 kts | 62° |
| 2026-05-05 19:21 | 39.54904 | 3.14991 | 3984 ft | 222 kts | 33° |
| 2026-05-05 19:21 | 39.56281 | 3.15715 | 3995 ft | 213 kts | 357° |
| 2026-05-05 19:21 | 39.57672 | 3.15285 | 4002 ft | 203 kts | 323° |
| 2026-05-05 19:21 | 39.58772 | 3.14139 | 3993 ft | 202 kts | 314° |
| 2026-05-05 19:22 | 39.59777 | 3.12892 | 3998 ft | 196 kts | 313° |
| 2026-05-05 19:22 | 39.60739 | 3.11675 | 4001 ft | 192 kts | 312° |
| 2026-05-05 19:22 | 39.61685 | 3.10477 | 3999 ft | 186 kts | 312° |
| 2026-05-05 19:22 | 39.62602 | 3.09323 | 3998 ft | 182 kts | 312° |
| 2026-05-05 19:23 | 39.63507 | 3.08183 | 3998 ft | 181 kts | 312° |
| 2026-05-05 19:23 | 39.64365 | 3.06992 | 3984 ft | 180 kts | 299° |
| 2026-05-05 19:23 | 39.64723 | 3.05490 | 3812 ft | 174 kts | 270° |
| 2026-05-05 19:23 | 39.64729 | 3.03926 | 3756 ft | 176 kts | 271° |
| 2026-05-05 19:24 | 39.64740 | 3.02341 | 3712 ft | 176 kts | 271° |
| 2026-05-05 19:24 | 39.64751 | 3.00697 | 3672 ft | 184 kts | 271° |
| 2026-05-05 19:24 | 39.64763 | 2.99034 | 3628 ft | 185 kts | 271° |
| 2026-05-05 19:24 | 39.64777 | 2.97371 | 3388 ft | 184 kts | 271° |
| 2026-05-05 19:25 | 39.64643 | 2.95727 | 3112 ft | 184 kts | 254° |
| 2026-05-05 19:25 | 39.64058 | 2.94245 | 3007 ft | 187 kts | 240° |
| 2026-05-05 19:25 | 39.63375 | 2.92802 | 2939 ft | 190 kts | 241° |
| 2026-05-05 19:25 | 39.62693 | 2.91353 | 2715 ft | 185 kts | 240° |
| 2026-05-05 19:26 | 39.62029 | 2.89941 | 2460 ft | 182 kts | 240° |
| 2026-05-05 19:26 | 39.61384 | 2.88571 | 2212 ft | 173 kts | 240° |
| 2026-05-05 19:26 | 39.60771 | 2.87268 | 1991 ft | 165 kts | 240° |
| 2026-05-05 19:26 | 39.60197 | 2.86049 | 1784 ft | 151 kts | 240° |
| 2026-05-05 19:27 | 39.59668 | 2.84926 | 1589 ft | 143 kts | 239° |
| 2026-05-05 19:27 | 39.59156 | 2.83836 | 1404 ft | 140 kts | 239° |
| 2026-05-05 19:27 | 39.58648 | 2.82758 | 1215 ft | 141 kts | 238° |
| 2026-05-05 19:27 | 39.58139 | 2.81679 | 1023 ft | 140 kts | 237° |
| 2026-05-05 19:28 | 39.57631 | 2.80601 | 831 ft | 140 kts | 238° |
| 2026-05-05 19:28 | 39.57121 | 2.79519 | 659 ft | 141 kts | 238° |
| 2026-05-05 19:28 | 39.56607 | 2.78435 | 464 ft | 140 kts | 238° |
| 2026-05-05 19:28 | 39.56104 | 2.77363 | 261 ft | 140 kts | 238° |
| 2026-05-05 19:29 | 39.55608 | 2.76301 | 89 ft | 137 kts | 238° |
| 2026-05-05 19:29 | 39.55156 | 2.75342 | 29 ft | 92 kts | 239° |
| 2026-05-05 19:29 | 39.54974 | 2.74956 | 31 ft | 24 kts | 238° |
| 2026-05-05 19:29 | 39.54860 | 2.74715 | 32 ft | 32 kts | 242° |
| 2026-05-05 19:30 | 39.54815 | 2.74535 | 34 ft | 16 kts | 261° |
| 2026-05-05 19:30 | 39.54807 | 2.74419 | 34 ft | 7 kts | 268° |
| 2026-05-05 19:30 | 39.54804 | 2.74331 | 35 ft | 11 kts | 269° |
| 2026-05-05 19:30 | 39.54803 | 2.74263 | 35 ft | 0 kts | 269° |
| 2026-05-05 19:33 | 39.54803 | 2.74259 | 35 ft | 6 kts | 269° |
| 2026-05-05 19:34 | 39.54787 | 2.74138 | 35 ft | 15 kts | 248° |
| 2026-05-05 19:34 | 39.54732 | 2.74013 | 36 ft | 16 kts | 238° |
| 2026-05-05 19:34 | 39.54671 | 2.73885 | 36 ft | 17 kts | 239° |
| 2026-05-05 19:35 | 39.54586 | 2.73654 | 36 ft | 10 kts | 291° |
| 2026-05-05 19:35 | 39.54624 | 2.73566 | 35 ft | 12 kts | 292° |
| 2026-05-05 19:35 | 39.54675 | 2.73513 | 36 ft | 8 kts | 329° |
| 2026-05-05 19:35 | 39.54731 | 2.73467 | 36 ft | 11 kts | 327° |
| 2026-05-05 19:36 | 39.54781 | 2.73413 | 36 ft | 8 kts | 304° |
| 2026-05-05 19:36 | 39.54788 | 2.73344 | 36 ft | 8 kts | 263° |
| 2026-05-05 19:36 | 39.54787 | 2.73326 | 36 ft | 1 kts | 266° |
| 2026-05-05 19:36 | 39.54787 | 2.73325 | 36 ft | 0 kts | 266° |